createdAt,value
2019-04-11T00:00:36.807Z,10.50
2019-04-11T00:03:07.118Z,10.47
2019-04-11T00:05:37.141Z,10.43
2019-04-11T00:08:08.026Z,10.39
2019-04-11T00:10:38.124Z,10.30
2019-04-11T00:13:18.273Z,10.18
2019-04-11T00:15:40.457Z,10.04
2019-04-11T00:18:10.531Z,10.00
2019-04-11T00:20:40.812Z,9.99
2019-04-11T00:23:10.649Z,9.96
2019-04-11T00:25:40.512Z,9.87
2019-04-11T00:28:10.415Z,9.74
2019-04-11T00:30:40.671Z,9.59
2019-04-11T00:33:10.544Z,9.44
2019-04-11T00:35:40.399Z,9.29
2019-04-11T00:38:10.309Z,9.17
2019-04-11T00:40:41.514Z,9.09
2019-04-11T00:43:11.589Z,9.00
2019-04-11T00:45:41.800Z,8.94
2019-04-11T00:48:11.969Z,8.87
2019-04-11T00:50:43.331Z,8.79
2019-04-11T00:53:13.937Z,8.71
2019-04-11T00:55:43.964Z,8.66
2019-04-11T00:58:13.848Z,8.63
2019-04-11T01:00:44.971Z,8.66
2019-04-11T01:03:14.882Z,8.64
2019-04-11T01:05:45.685Z,8.59
2019-04-11T01:08:15.776Z,8.52
2019-04-11T01:10:45.728Z,8.41
2019-04-11T01:13:15.804Z,8.33
2019-04-11T01:15:52.931Z,8.30
2019-04-11T01:18:22.806Z,8.30
2019-04-11T01:20:53.681Z,8.40
2019-04-11T01:23:24.075Z,8.54
2019-04-11T01:25:55.331Z,8.63
2019-04-11T01:28:26.818Z,8.68
2019-04-11T01:31:03.468Z,8.73
2019-04-11T01:33:33.386Z,8.82
2019-04-11T01:36:03.234Z,8.91
2019-04-11T01:38:34.739Z,9.00
2019-04-11T01:41:04.688Z,8.96
2019-04-11T01:43:35.719Z,8.92
2019-04-11T01:46:06.132Z,8.92
2019-04-11T01:48:43.854Z,8.78
2019-04-11T01:51:13.845Z,8.74
2019-04-11T01:53:43.710Z,8.77
2019-04-11T01:56:14.853Z,8.71
2019-04-11T01:58:44.879Z,8.64
2019-04-11T02:01:25.022Z,8.60
2019-04-11T02:04:19.464Z,8.60
2019-04-11T02:06:49.991Z,8.57
2019-04-11T02:09:20.073Z,8.60
2019-04-11T02:11:50.026Z,8.59
2019-04-11T02:14:21.473Z,8.58
2019-04-11T02:16:52.261Z,8.53
2019-04-11T02:19:22.465Z,8.43
2019-04-11T02:21:54.047Z,8.38
2019-04-11T02:24:45.839Z,8.30
2019-04-11T02:27:25.953Z,8.24
2019-04-11T02:29:56.270Z,8.21
2019-04-11T02:32:28.631Z,8.12
2019-04-11T02:34:59.312Z,8.05
2019-04-11T02:37:31.124Z,8.07
2019-04-11T02:40:03.060Z,8.08
2019-04-11T02:42:34.925Z,8.08
2019-04-11T02:45:23.090Z,8.05
2019-04-11T02:47:39.483Z,8.07
2019-04-11T02:50:10.470Z,8.08
2019-04-11T02:52:42.115Z,8.11
2019-04-11T02:55:13.121Z,8.13
2019-04-11T02:57:45.904Z,8.10
2019-04-11T03:00:17.910Z,8.11
2019-04-11T03:02:50.224Z,8.13
2019-04-11T03:05:21.485Z,8.17
2019-04-11T03:07:52.576Z,8.17
2019-04-11T03:10:24.883Z,8.20
2019-04-11T03:12:56.616Z,8.23
2019-04-11T03:15:41.529Z,8.22
2019-04-11T03:18:01.916Z,8.18
2019-04-11T03:20:38.424Z,8.15
2019-04-11T03:23:07.447Z,8.09
2019-04-11T03:25:36.393Z,8.05
2019-04-11T03:28:13.406Z,8.07
2019-04-11T03:30:59.138Z,8.12
2019-04-11T03:34:01.279Z,8.17
2019-04-11T03:38:38.610Z,8.28
2019-04-11T03:41:08.722Z,8.30
2019-04-11T03:43:30.246Z,8.31
2019-04-11T03:46:11.784Z,8.32
2019-04-11T03:48:33.358Z,8.34
2019-04-11T03:50:56.693Z,8.34
2019-04-11T03:53:29.577Z,8.34
2019-04-11T03:55:57.356Z,8.32
2019-04-11T03:58:29.218Z,8.28
2019-04-11T04:01:03.342Z,8.24
2019-04-11T04:03:31.431Z,8.19
2019-04-11T04:06:04.437Z,8.18
2019-04-11T04:08:36.324Z,8.17
2019-04-11T04:11:19.058Z,8.19
2019-04-11T04:14:04.177Z,8.18
2019-04-11T04:16:59.813Z,8.17
2019-04-11T04:19:38.054Z,8.18
2019-04-11T04:22:22.893Z,8.20
2019-04-11T04:24:55.464Z,8.21
2019-04-11T04:27:27.899Z,8.24
2019-04-11T04:30:01.502Z,8.26
2019-04-11T04:32:30.437Z,8.27
2019-04-11T04:35:01.805Z,8.30
2019-04-11T04:37:34.655Z,8.32
2019-04-11T04:40:23.862Z,8.35
2019-04-11T04:42:42.874Z,8.36
2019-04-11T04:45:10.154Z,8.36
2019-04-11T04:47:47.607Z,8.36
2019-04-11T04:50:13.348Z,8.36
2019-04-11T04:52:44.980Z,8.35
2019-04-11T04:55:14.964Z,8.34
2019-04-11T04:57:44.996Z,8.35
2019-04-11T05:00:15.734Z,8.30
2019-04-11T05:02:46.142Z,8.29
2019-04-11T05:05:17.714Z,8.32
2019-04-11T05:07:49.706Z,8.34
2019-04-11T05:10:22.150Z,8.34
2019-04-11T05:12:52.344Z,8.36
2019-04-11T05:15:22.205Z,8.39
2019-04-11T05:17:53.310Z,8.40
2019-04-11T05:20:23.866Z,8.41
2019-04-11T05:22:53.919Z,8.42
2019-04-11T05:25:23.760Z,8.44
2019-04-11T05:27:54.042Z,8.48
2019-04-11T05:30:25.249Z,8.48
2019-04-11T05:32:55.782Z,8.50
2019-04-11T05:35:26.862Z,8.49
2019-04-11T05:37:57.909Z,8.51
2019-04-11T05:40:28.158Z,8.52
2019-04-11T05:42:59.592Z,8.51
2019-04-11T05:45:29.594Z,8.49
2019-04-11T05:48:01.118Z,8.48
2019-04-11T05:50:34.097Z,8.48
2019-04-11T05:53:05.613Z,8.46
2019-04-11T05:55:41.581Z,8.49
2019-04-11T05:58:12.762Z,8.48
2019-04-11T06:00:59.569Z,8.49
2019-04-11T06:03:30.244Z,8.51
2019-04-11T06:06:37.783Z,8.54
2019-04-11T06:09:16.143Z,8.55
2019-04-11T06:11:59.580Z,8.58
2019-04-11T06:14:37.536Z,8.58
2019-04-11T06:17:11.427Z,8.63
2019-04-11T06:19:59.297Z,8.68
2019-04-11T06:22:29.747Z,8.71
2019-04-11T06:25:30.378Z,8.73
2019-04-11T06:28:11.735Z,8.78
2019-04-11T06:31:20.086Z,8.80
2019-04-11T06:33:57.380Z,8.84
2019-04-11T06:37:05.525Z,8.89
2019-04-11T06:39:40.059Z,8.91
2019-04-11T06:42:30.164Z,8.90
2019-04-11T06:45:22.118Z,8.95
2019-04-11T06:48:26.718Z,8.98
2019-04-11T06:51:26.084Z,9.03
2019-04-11T06:54:14.799Z,9.10
2019-04-11T06:56:47.579Z,9.20
2019-04-11T06:59:24.031Z,9.27
2019-04-11T07:01:55.047Z,9.34
2019-04-11T07:04:29.923Z,9.39
2019-04-11T07:07:00.763Z,9.43
2019-04-11T07:10:07.968Z,9.47
2019-04-11T07:12:42.774Z,9.49
2019-04-11T07:15:35.504Z,9.54
2019-04-11T07:18:24.693Z,9.56
2019-04-11T07:21:06.340Z,9.65
2019-04-11T07:23:54.005Z,9.71
2019-04-11T07:26:52.237Z,9.74
2019-04-11T07:29:50.738Z,9.79
2019-04-11T07:32:23.648Z,9.88
2019-04-11T07:35:12.866Z,9.96
2019-04-11T07:37:47.608Z,10.01
2019-04-11T07:40:37.105Z,10.05
2019-04-11T07:43:29.250Z,10.07
2019-04-11T07:46:17.119Z,10.12
2019-04-11T07:48:48.059Z,10.16
2019-04-11T07:51:25.823Z,10.19
2019-04-11T07:53:56.882Z,10.21
2019-04-11T07:56:35.176Z,10.22
2019-04-11T07:59:08.140Z,10.24
2019-04-11T08:02:00.087Z,10.28
2019-04-11T08:04:55.365Z,10.30
2019-04-11T08:07:44.841Z,10.34
2019-04-11T08:10:21.296Z,10.38
2019-04-11T08:12:51.930Z,10.42
2019-04-11T08:15:40.374Z,10.45
2019-04-11T08:18:32.797Z,10.47
2019-04-11T08:21:21.889Z,10.55
2019-04-11T08:23:54.178Z,10.64
2019-04-11T08:26:42.236Z,10.67
2019-04-11T08:29:15.522Z,10.73
2019-04-11T08:32:02.840Z,10.71
2019-04-11T08:34:37.511Z,10.68
2019-04-11T08:37:24.947Z,10.70
2019-04-11T08:39:57.638Z,10.72
2019-04-11T08:42:46.559Z,10.75
2019-04-11T08:45:17.501Z,10.77
2019-04-11T08:47:54.541Z,10.86
2019-04-11T08:50:26.176Z,10.94
2019-04-11T08:53:17.035Z,10.97
2019-04-11T08:55:55.772Z,11.00
2019-04-11T08:58:40.621Z,11.04
2019-04-11T09:01:18.416Z,11.14
2019-04-11T09:04:15.282Z,11.26
2019-04-11T09:06:47.082Z,11.32
2019-04-11T09:09:36.453Z,11.33
2019-04-11T09:12:10.119Z,11.40
2019-04-11T09:14:58.010Z,11.41
2019-04-11T09:17:31.535Z,11.47
2019-04-11T09:20:21.411Z,11.56
2019-04-11T09:23:02.086Z,11.56
2019-04-11T09:26:08.362Z,11.63
2019-04-11T09:28:45.815Z,11.66
2019-04-11T09:31:41.748Z,11.72
2019-04-11T09:34:37.669Z,11.79
2019-04-11T09:37:44.501Z,11.79
2019-04-11T09:40:43.770Z,11.81
2019-04-11T09:43:15.942Z,11.82
2019-04-11T09:46:06.299Z,11.86
2019-04-11T09:48:46.496Z,11.86
2019-04-11T09:51:35.880Z,11.85
2019-04-11T09:54:17.588Z,11.88
2019-04-11T09:57:05.518Z,11.96
2019-04-11T09:59:51.852Z,12.04
2019-04-11T10:02:39.747Z,12.14
2019-04-11T10:05:10.795Z,12.20
2019-04-11T10:07:57.951Z,12.28
2019-04-11T10:10:46.563Z,12.30
2019-04-11T10:13:31.065Z,12.27
2019-04-11T10:16:24.136Z,12.28
2019-04-11T10:19:07.665Z,12.29
2019-04-11T10:21:39.529Z,12.40
2019-04-11T10:24:20.947Z,12.52
2019-04-11T10:26:58.472Z,12.68
2019-04-11T10:29:54.602Z,12.83
2019-04-11T10:32:27.543Z,12.96
2019-04-11T10:35:17.606Z,13.07
2019-04-11T10:37:47.722Z,13.11
2019-04-11T10:40:41.921Z,13.24
2019-04-11T10:43:11.973Z,13.38
2019-04-11T10:46:01.099Z,13.53
2019-04-11T10:48:45.319Z,13.66
2019-04-11T10:51:37.943Z,13.87
2019-04-11T10:54:08.819Z,14.02
2019-04-11T10:56:50.014Z,14.16
2019-04-11T10:59:21.577Z,14.27
2019-04-11T11:02:10.598Z,14.47
2019-04-11T11:04:48.449Z,14.60
2019-04-11T11:07:22.451Z,14.68
2019-04-11T11:10:03.176Z,14.83
2019-04-11T11:12:57.342Z,14.93
2019-04-11T11:15:29.477Z,14.97
2019-04-11T11:18:53.067Z,15.10
2019-04-11T11:21:03.640Z,15.21
2019-04-11T11:23:52.472Z,15.37
2019-04-11T11:26:28.253Z,15.51
2019-04-11T11:29:34.954Z,15.62
2019-04-11T11:32:11.845Z,15.57
2019-04-11T11:35:01.142Z,15.64
2019-04-11T11:37:43.520Z,15.71
2019-04-11T11:40:41.147Z,15.77
2019-04-11T11:43:25.280Z,15.81
2019-04-11T11:46:25.498Z,15.90
2019-04-11T11:49:12.108Z,15.95
2019-04-11T11:52:11.329Z,16.12
2019-04-11T11:54:46.062Z,16.29
2019-04-11T11:57:35.207Z,16.31
2019-04-11T12:00:31.755Z,16.42
2019-04-11T12:03:23.418Z,16.45
2019-04-11T12:05:56.676Z,16.60
2019-04-11T12:08:54.701Z,16.82
2019-04-11T12:11:26.141Z,17.02
2019-04-11T12:14:29.521Z,17.16
2019-04-11T12:17:24.908Z,17.27
2019-04-11T12:20:06.380Z,17.40
2019-04-11T12:22:31.246Z,17.54
2019-04-11T12:25:09.757Z,17.54
2019-04-11T12:27:58.295Z,17.58
2019-04-11T12:30:37.392Z,17.73
2019-04-11T12:33:25.687Z,17.80
2019-04-11T12:36:01.305Z,17.81
2019-04-11T12:38:59.311Z,17.75
2019-04-11T12:41:45.994Z,17.59
2019-04-11T12:44:49.990Z,17.73
2019-04-11T12:47:38.649Z,17.94
2019-04-11T12:50:28.916Z,18.00
2019-04-11T12:53:12.806Z,18.15
2019-04-11T12:56:00.597Z,18.23
2019-04-11T12:58:49.399Z,18.42
2019-04-11T13:01:37.049Z,18.55
2019-04-11T13:04:25.310Z,18.62
2019-04-11T13:07:12.927Z,18.68
2019-04-11T13:10:14.210Z,18.79
2019-04-11T13:13:18.851Z,18.94
2019-04-11T13:15:58.944Z,18.98
2019-04-11T13:19:03.123Z,19.05
2019-04-11T13:21:55.865Z,19.12
2019-04-11T13:24:45.000Z,19.24
2019-04-11T13:27:34.271Z,19.20
2019-04-11T13:30:38.039Z,19.43
2019-04-11T13:33:17.473Z,19.73
2019-04-11T13:36:01.461Z,20.08
2019-04-11T13:38:34.125Z,20.32
2019-04-11T13:41:23.172Z,20.54
2019-04-11T13:44:10.963Z,20.59
2019-04-11T13:46:59.894Z,20.63
2019-04-11T13:49:48.756Z,20.71
2019-04-11T13:52:37.674Z,20.69
2019-04-11T13:55:09.756Z,20.60
2019-04-11T13:57:58.699Z,20.81
2019-04-11T14:00:59.790Z,20.84
2019-04-11T14:03:48.991Z,20.69
2019-04-11T14:06:51.831Z,20.77
2019-04-11T14:09:34.217Z,20.77
2019-04-11T14:12:09.124Z,20.66
2019-04-11T14:14:41.199Z,20.58
2019-04-11T14:17:36.873Z,20.41
2019-04-11T14:20:29.820Z,20.14
2019-04-11T14:23:24.384Z,19.82
2019-04-11T14:26:12.751Z,19.62
2019-04-11T14:28:52.771Z,19.35
2019-04-11T14:31:36.994Z,18.95
2019-04-11T14:34:25.395Z,18.50
2019-04-11T14:37:13.208Z,18.21
2019-04-11T14:39:45.559Z,18.06
2019-04-11T14:42:45.790Z,17.84
2019-04-11T14:45:24.714Z,17.73
2019-04-11T14:48:17.314Z,17.77
2019-04-11T14:51:15.956Z,17.84
2019-04-11T14:54:01.571Z,17.80
2019-04-11T14:56:31.986Z,17.78
2019-04-11T14:59:16.299Z,17.75
2019-04-11T15:01:48.180Z,17.52
2019-04-11T15:04:36.364Z,17.49
2019-04-11T15:07:06.169Z,17.50
2019-04-11T15:09:46.739Z,17.47
2019-04-11T15:12:19.983Z,17.47
2019-04-11T15:15:19.269Z,17.54
2019-04-11T15:17:51.260Z,17.60
2019-04-11T15:20:55.286Z,17.65
2019-04-11T15:23:29.519Z,17.68
2019-04-11T15:26:24.421Z,17.75
2019-04-11T15:29:00.876Z,17.77
2019-04-11T15:31:59.526Z,17.76
2019-04-11T15:34:37.040Z,17.87
2019-04-11T15:37:20.455Z,17.89
2019-04-11T15:40:08.075Z,17.76
2019-04-11T15:43:12.673Z,17.87
2019-04-11T15:46:10.497Z,17.78
2019-04-11T15:48:59.335Z,17.85
2019-04-11T15:51:35.303Z,17.95
2019-04-11T15:54:27.511Z,18.03
2019-04-11T15:57:00.531Z,18.08
2019-04-11T15:59:55.870Z,18.31
2019-04-11T16:02:47.735Z,18.18
2019-04-11T16:05:48.884Z,18.25
2019-04-11T16:08:39.446Z,18.24
2019-04-11T16:11:32.403Z,18.39
2019-04-11T16:14:18.942Z,18.64
2019-04-11T16:17:14.018Z,18.83
2019-04-11T16:20:17.759Z,19.18
2019-04-11T16:23:02.921Z,19.31
2019-04-11T16:25:32.843Z,19.66
2019-04-11T16:28:25.145Z,20.02
2019-04-11T16:30:59.717Z,20.28
2019-04-11T16:33:45.871Z,20.46
2019-04-11T16:36:18.084Z,20.29
2019-04-11T16:39:07.030Z,20.05
2019-04-11T16:41:55.041Z,19.68
2019-04-11T16:44:31.566Z,19.08
2019-04-11T16:47:19.058Z,19.07
2019-04-11T16:49:48.939Z,19.05
2019-04-11T16:52:18.869Z,19.06
2019-04-11T16:54:48.869Z,19.08
2019-04-11T16:57:18.756Z,19.06
2019-04-11T16:59:49.789Z,18.99
2019-04-11T17:02:21.888Z,18.97
2019-04-11T17:04:55.592Z,18.97
2019-04-11T17:07:42.849Z,18.59
2019-04-11T17:10:13.717Z,18.59
2019-04-11T17:12:43.897Z,18.26
2019-04-11T17:15:13.874Z,17.50
2019-04-11T17:17:43.790Z,17.31
2019-04-11T17:20:15.231Z,17.18
2019-04-11T17:22:46.708Z,16.87
2019-04-11T17:25:17.585Z,16.66
2019-04-11T17:27:50.693Z,16.41
2019-04-11T17:30:24.517Z,16.06
2019-04-11T17:32:55.548Z,15.94
2019-04-11T17:35:23.895Z,15.83
2019-04-11T17:37:53.914Z,15.73
2019-04-11T17:40:23.782Z,15.62
2019-04-11T17:42:53.575Z,15.51
2019-04-11T17:45:23.910Z,15.47
2019-04-11T17:47:54.806Z,15.31
2019-04-11T17:50:25.941Z,15.20
2019-04-11T17:52:56.257Z,15.09
2019-04-11T17:55:26.328Z,15.06
2019-04-11T17:57:57.607Z,14.98
2019-04-11T18:00:34.170Z,14.80
2019-04-11T18:03:04.356Z,14.78
2019-04-11T18:05:34.621Z,14.71
2019-04-11T18:08:04.854Z,14.64
2019-04-11T18:10:34.736Z,14.46
2019-04-11T18:13:04.710Z,14.41
2019-04-11T18:15:35.061Z,14.36
2019-04-11T18:18:06.117Z,14.32
2019-04-11T18:20:36.990Z,14.32
2019-04-11T18:23:08.117Z,14.37
2019-04-11T18:25:38.503Z,14.37
2019-04-11T18:28:09.074Z,14.30
2019-04-11T18:30:40.190Z,14.36
2019-04-11T18:33:10.146Z,14.31
2019-04-11T18:35:40.265Z,14.34
2019-04-11T18:38:10.212Z,14.31
2019-04-11T18:40:40.894Z,14.28
2019-04-11T18:43:11.189Z,14.23
2019-04-11T18:45:41.167Z,14.23
2019-04-11T18:48:11.153Z,14.13
2019-04-11T18:50:41.428Z,13.96
2019-04-11T18:53:11.446Z,13.88
2019-04-11T18:55:42.468Z,13.96
2019-04-11T18:58:12.547Z,13.91
2019-04-11T19:00:42.776Z,13.91
2019-04-11T19:03:14.405Z,13.92
2019-04-11T19:05:45.832Z,13.89
2019-04-11T19:08:16.018Z,13.84
2019-04-11T19:10:46.118Z,13.79
2019-04-11T19:13:18.674Z,13.77
2019-04-11T19:15:49.134Z,13.67
2019-04-11T19:18:19.166Z,13.60
2019-04-11T19:20:50.307Z,13.49
2019-04-11T19:23:23.894Z,13.48
2019-04-11T19:25:53.909Z,13.45
2019-04-11T19:28:25.222Z,13.43
2019-04-11T19:30:56.970Z,13.41
2019-04-11T19:33:27.118Z,13.36
2019-04-11T19:35:57.214Z,13.38
2019-04-11T19:38:29.731Z,13.30
2019-04-11T19:41:00.040Z,13.31
2019-04-11T19:43:30.420Z,13.23
2019-04-11T19:46:01.428Z,13.18
2019-04-11T19:48:31.635Z,13.12
2019-04-11T19:51:01.618Z,13.06
2019-04-11T19:53:33.044Z,12.97
2019-04-11T19:56:40.735Z,12.89
2019-04-11T19:59:10.678Z,12.90
2019-04-11T20:01:40.598Z,12.83
2019-04-11T20:04:10.697Z,12.83
2019-04-11T20:06:40.896Z,12.77
2019-04-11T20:09:11.106Z,12.69
2019-04-11T20:11:44.895Z,12.61
2019-04-11T20:14:15.343Z,12.47
2019-04-11T20:16:49.004Z,12.37
2019-04-11T20:19:18.753Z,12.35
2019-04-11T20:21:48.711Z,12.31
2019-04-11T20:24:19.005Z,12.27
2019-04-11T20:26:50.365Z,12.17
2019-04-11T20:29:22.138Z,12.11
2019-04-11T20:31:52.245Z,11.96
2019-04-11T20:34:27.765Z,11.88
2019-04-11T20:36:53.969Z,11.86
2019-04-11T20:39:23.958Z,11.83
2019-04-11T20:41:54.232Z,11.78
2019-04-11T20:44:27.178Z,11.71
2019-04-11T20:47:00.106Z,11.70
2019-04-11T20:49:28.879Z,11.71
2019-04-11T20:51:59.354Z,11.69
2019-04-11T20:54:29.625Z,11.66
2019-04-11T20:56:59.581Z,11.60
2019-04-11T20:59:34.703Z,11.58
2019-04-11T21:02:01.181Z,11.58
2019-04-11T21:04:31.856Z,11.56
2019-04-11T21:07:02.617Z,11.54
2019-04-11T21:09:33.328Z,11.50
2019-04-11T21:12:05.009Z,11.45
2019-04-11T21:14:35.889Z,11.42
2019-04-11T21:17:05.840Z,11.39
2019-04-11T21:19:35.735Z,11.35
2019-04-11T21:22:05.654Z,11.29
2019-04-11T21:24:36.181Z,11.27
2019-04-11T21:27:06.199Z,11.26
2019-04-11T21:29:36.160Z,11.21
2019-04-11T21:32:06.164Z,11.20
2019-04-11T21:34:36.018Z,11.18
2019-04-11T21:37:05.990Z,11.15
2019-04-11T21:39:35.973Z,11.08
2019-04-11T21:42:07.203Z,11.06
2019-04-11T21:44:37.187Z,11.07
2019-04-11T21:47:07.905Z,11.06
2019-04-11T21:49:38.191Z,11.00
2019-04-11T21:52:11.995Z,10.95
2019-04-11T21:54:39.902Z,10.92
2019-04-11T21:57:10.165Z,10.92
2019-04-11T21:59:40.145Z,10.91
2019-04-11T22:02:12.043Z,10.88
2019-04-11T22:04:42.099Z,10.84
2019-04-11T22:07:12.543Z,10.82
2019-04-11T22:09:43.814Z,10.80
2019-04-11T22:12:13.856Z,10.77
2019-04-11T22:14:44.191Z,10.72
2019-04-11T22:17:15.897Z,10.70
2019-04-11T22:20:07.117Z,10.68
2019-04-11T22:22:37.019Z,10.64
2019-04-11T22:25:07.869Z,10.57
2019-04-11T22:27:37.742Z,10.55
2019-04-11T22:30:08.468Z,10.53
2019-04-11T22:32:39.584Z,10.54
2019-04-11T22:35:09.550Z,10.52
2019-04-11T22:37:39.721Z,10.43
2019-04-11T22:40:09.933Z,10.39
2019-04-11T22:42:39.802Z,10.39
2019-04-11T22:45:09.993Z,10.35
2019-04-11T22:47:40.300Z,10.35
2019-04-11T22:50:10.849Z,10.36
2019-04-11T22:52:42.222Z,10.34
2019-04-11T22:55:12.944Z,10.19
2019-04-11T22:57:43.705Z,10.14
2019-04-11T23:00:15.210Z,10.14
2019-04-11T23:02:51.566Z,10.17
2019-04-11T23:05:21.419Z,10.17
2019-04-11T23:07:51.792Z,10.15
2019-04-11T23:10:21.628Z,10.17
2019-04-11T23:12:51.413Z,10.20
2019-04-11T23:15:21.342Z,10.20
2019-04-11T23:17:51.492Z,10.21
2019-04-11T23:20:21.418Z,10.17
2019-04-11T23:22:51.200Z,10.15
2019-04-11T23:25:20.993Z,10.14
2019-04-11T23:27:50.947Z,10.14
2019-04-11T23:30:20.867Z,10.13
2019-04-11T23:32:51.720Z,10.11
2019-04-11T23:35:21.823Z,10.13
2019-04-11T23:37:52.093Z,10.16
2019-04-11T23:40:23.099Z,10.21
2019-04-11T23:42:53.246Z,10.22
2019-04-11T23:45:25.739Z,10.25
2019-04-11T23:47:56.884Z,10.25
2019-04-11T23:50:27.223Z,10.24
2019-04-11T23:52:58.094Z,10.20
2019-04-11T23:55:30.737Z,10.20
2019-04-11T23:58:01.694Z,10.21
